Moscow, Russia
Current Conditions -  °F | °C
As of 9:30 AM on Friday 28 Nov 2014 (Local Time) from UUWW Reporting Station
Haze Haze  
Wind Chill: -10°   Ceiling: 10000
Heat Index: -10°   Visibility: 3mi
Dew Point: -11°   Wind: 2mph
Humidity: 93%   Direction: NA
Pressure: 30.53"   Gusts: NA
Location:  55.75°N, 37.62°E
Report Text: UUWW 280630Z VRB01MPS 5000 BR BKN100 M10/M11 Q1034 24290050NOSIG
Loading
Personal Weather Stations






























Interactive Weather Map New forecast layout! Learn more

10-Day Weather Forecast

Advertisements
Track Severe Weather on mobile